createdAt,value
2022-08-05T00:00:33.354Z,38.20
2022-08-05T00:03:48.956Z,36.97
2022-08-05T00:06:51.919Z,37.69
2022-08-05T00:09:53.565Z,37.33
2022-08-05T00:12:57.079Z,37.68
2022-08-05T00:16:00.257Z,37.73
2022-08-05T00:19:02.054Z,37.60
2022-08-05T00:22:04.528Z,38.20
2022-08-05T00:25:08.429Z,37.33
2022-08-05T00:28:15.550Z,38.72
2022-08-05T00:31:53.986Z,38.29
2022-08-05T00:35:04.654Z,40.19
2022-08-05T00:38:09.441Z,40.03
2022-08-05T00:41:11.762Z,38.58
2022-08-05T00:44:13.734Z,39.64
2022-08-05T00:47:16.421Z,39.68
2022-08-05T00:50:18.050Z,39.97
2022-08-05T00:54:00.133Z,40.22
2022-08-05T00:56:51.262Z,40.83
2022-08-05T00:59:53.783Z,39.27
2022-08-05T01:02:57.144Z,40.22
2022-08-05T01:05:58.766Z,41.32
2022-08-05T01:09:00.541Z,41.43
2022-08-05T01:12:18.855Z,40.64
2022-08-05T01:15:36.424Z,41.40
2022-08-05T01:18:42.580Z,41.96
2022-08-05T01:21:54.735Z,41.77
2022-08-05T01:25:19.750Z,42.12
2022-08-05T01:28:46.426Z,42.22
2022-08-05T01:31:52.682Z,41.56
2022-08-05T01:35:00.662Z,41.60
2022-08-05T01:38:04.346Z,41.14
2022-08-05T01:41:07.777Z,41.10
2022-08-05T01:44:11.185Z,41.96
2022-08-05T01:47:19.717Z,41.43
2022-08-05T01:50:32.669Z,40.99
2022-08-05T01:53:57.643Z,41.30
2022-08-05T01:58:12.975Z,41.21
2022-08-05T02:00:21.003Z,39.59
2022-08-05T02:03:36.209Z,39.38
2022-08-05T02:06:39.477Z,38.78
2022-08-05T02:09:41.153Z,39.87
2022-08-05T02:12:56.394Z,39.79
2022-08-05T02:16:04.640Z,40.83
2022-08-05T02:19:16.027Z,41.23
2022-08-05T02:22:30.893Z,40.60
2022-08-05T02:25:49.246Z,40.22
2022-08-05T02:28:54.675Z,40.09
2022-08-05T02:32:00.688Z,40.28
2022-08-05T02:35:14.179Z,41.29
2022-08-05T02:38:19.272Z,41.74
2022-08-05T02:41:23.768Z,41.85
2022-08-05T02:44:34.155Z,42.48
2022-08-05T02:48:06.791Z,41.04
2022-08-05T02:51:02.972Z,41.23
2022-08-05T02:54:06.093Z,40.49
2022-08-05T02:58:20.175Z,41.17
2022-08-05T03:00:41.127Z,42.09
2022-08-05T03:04:08.897Z,41.73
2022-08-05T03:07:17.551Z,41.17
2022-08-05T03:10:36.339Z,41.17
2022-08-05T03:13:51.768Z,39.81
2022-08-05T03:17:00.675Z,40.19
2022-08-05T03:20:02.435Z,39.80
2022-08-05T03:23:08.068Z,40.72
2022-08-05T03:26:31.391Z,39.63
2022-08-05T03:29:44.813Z,41.25
2022-08-05T03:32:55.327Z,41.49
2022-08-05T03:35:58.162Z,40.51
2022-08-05T03:39:07.478Z,41.44
2022-08-05T03:42:09.506Z,41.46
2022-08-05T03:45:22.677Z,41.08
2022-08-05T03:48:29.241Z,41.98
2022-08-05T03:52:39.424Z,43.18
2022-08-05T03:56:05.845Z,42.49
2022-08-05T03:58:31.395Z,41.06
2022-08-05T04:01:37.600Z,42.04
2022-08-05T04:04:40.931Z,41.99
2022-08-05T04:07:57.563Z,42.72
2022-08-05T04:11:02.375Z,41.37
2022-08-05T04:14:04.854Z,40.80
2022-08-05T04:17:09.039Z,41.46
2022-08-05T04:20:21.636Z,41.49
2022-08-05T04:24:00.266Z,41.27
2022-08-05T04:26:47.867Z,41.87
2022-08-05T04:29:49.352Z,41.39
2022-08-05T04:32:50.902Z,40.61
2022-08-05T04:36:11.161Z,40.72
2022-08-05T04:39:14.045Z,41.21
2022-08-05T04:42:15.548Z,40.50
2022-08-05T04:45:31.135Z,40.91
2022-08-05T04:48:38.769Z,41.00
2022-08-05T04:51:44.284Z,41.39
2022-08-05T04:54:45.844Z,42.26
2022-08-05T04:57:53.772Z,41.75
2022-08-05T05:00:55.958Z,42.16
2022-08-05T05:03:57.473Z,41.90
2022-08-05T05:06:58.948Z,42.08
2022-08-05T05:10:04.468Z,41.66
2022-08-05T05:13:06.079Z,42.03
2022-08-05T05:16:08.023Z,41.80
2022-08-05T05:19:19.355Z,42.00
2022-08-05T05:22:26.441Z,42.85
2022-08-05T05:25:32.704Z,42.09
2022-08-05T05:28:42.789Z,42.53
2022-08-05T05:31:46.689Z,42.16
2022-08-05T05:34:48.198Z,42.38
2022-08-05T05:38:02.145Z,42.78
2022-08-05T05:41:03.963Z,43.76
2022-08-05T05:44:27.008Z,42.69
2022-08-05T05:48:06.140Z,42.91
2022-08-05T05:50:52.977Z,43.96
2022-08-05T05:53:58.873Z,44.03
2022-08-05T05:57:01.204Z,42.77
2022-08-05T06:00:10.221Z,42.59
2022-08-05T06:03:39.803Z,43.19
2022-08-05T06:06:36.861Z,43.89
2022-08-05T06:10:01.440Z,44.19
2022-08-05T06:13:05.244Z,45.20
2022-08-05T06:16:29.706Z,45.72
2022-08-05T06:19:34.487Z,45.43
2022-08-05T06:22:37.487Z,45.12
2022-08-05T06:26:12.789Z,44.61
2022-08-05T06:29:06.455Z,43.80
2022-08-05T06:32:28.900Z,44.02
2022-08-05T06:36:07.252Z,44.15
2022-08-05T06:38:54.666Z,42.90
2022-08-05T06:41:58.899Z,42.20
2022-08-05T06:45:05.472Z,42.25
2022-08-05T06:48:36.208Z,41.52
2022-08-05T06:51:31.808Z,42.64
2022-08-05T06:54:33.376Z,42.59
2022-08-05T06:58:02.677Z,43.16
2022-08-05T07:01:03.278Z,43.04
2022-08-05T07:04:04.779Z,43.74
2022-08-05T07:07:07.917Z,44.00
2022-08-05T07:10:10.436Z,42.85
2022-08-05T07:13:57.201Z,42.21
2022-08-05T07:18:08.487Z,42.51
2022-08-05T07:20:33.510Z,42.13
2022-08-05T07:23:37.377Z,41.75
2022-08-05T07:26:52.078Z,42.08
2022-08-05T07:30:25.574Z,41.38
2022-08-05T07:33:16.850Z,40.62
2022-08-05T07:36:20.595Z,38.57
2022-08-05T07:39:24.873Z,38.58
2022-08-05T07:42:44.748Z,38.84
2022-08-05T07:45:57.014Z,37.97
2022-08-05T07:49:05.430Z,37.81
2022-08-05T07:52:07.824Z,36.85
2022-08-05T07:55:44.633Z,37.25
2022-08-05T07:58:57.179Z,37.33
2022-08-05T08:01:57.656Z,36.46
2022-08-05T08:05:00.429Z,36.03
2022-08-05T08:08:02.053Z,35.59
2022-08-05T08:11:03.444Z,35.42
2022-08-05T08:14:10.296Z,35.24
2022-08-05T08:17:19.668Z,34.17
2022-08-05T08:20:43.944Z,34.56
2022-08-05T08:24:01.409Z,33.89
2022-08-05T08:27:07.585Z,33.73
2022-08-05T08:30:30.111Z,33.96
2022-08-05T08:33:35.950Z,32.66
2022-08-05T08:36:47.703Z,32.03
2022-08-05T08:39:54.150Z,32.23
2022-08-05T08:42:56.821Z,31.09
2022-08-05T08:45:59.899Z,32.35
2022-08-05T08:50:12.881Z,31.74
2022-08-05T08:52:32.058Z,32.53
2022-08-05T08:56:04.643Z,31.27
2022-08-05T08:58:59.308Z,30.32
2022-08-05T09:02:08.598Z,30.03
2022-08-05T09:05:17.493Z,30.07
2022-08-05T09:08:20.111Z,29.87
2022-08-05T09:11:52.170Z,30.34
2022-08-05T09:14:57.859Z,29.64
2022-08-05T09:18:01.433Z,29.79
2022-08-05T09:21:05.615Z,29.57
2022-08-05T09:24:13.558Z,30.26
2022-08-05T09:28:03.799Z,30.61
2022-08-05T09:31:00.919Z,30.35
2022-08-05T09:34:19.649Z,31.08
2022-08-05T09:38:17.302Z,30.66
2022-08-05T09:40:53.564Z,30.27
2022-08-05T09:43:55.588Z,29.75
2022-08-05T09:47:12.715Z,30.65
2022-08-05T09:50:38.089Z,30.60
2022-08-05T09:53:53.633Z,29.85
2022-08-05T09:56:57.818Z,29.49
2022-08-05T10:00:13.205Z,29.18
2022-08-05T10:03:15.602Z,29.84
2022-08-05T10:06:20.746Z,28.90
2022-08-05T10:09:27.523Z,30.34
2022-08-05T10:12:33.785Z,30.09
2022-08-05T10:15:41.429Z,29.71
2022-08-05T10:18:43.560Z,31.34
2022-08-05T10:21:50.651Z,30.18
2022-08-05T10:24:52.576Z,31.12
2022-08-05T10:28:13.080Z,29.81
2022-08-05T10:32:53.046Z,30.47
2022-08-05T10:34:40.874Z,30.19
2022-08-05T10:37:45.029Z,29.95
2022-08-05T10:40:49.857Z,29.48
2022-08-05T10:43:59.528Z,29.40
2022-08-05T10:47:26.506Z,27.92
2022-08-05T10:50:37.037Z,29.36
2022-08-05T10:53:45.377Z,27.97
2022-08-05T10:56:52.810Z,28.43
2022-08-05T11:00:13.376Z,27.99
2022-08-05T11:03:23.162Z,27.60
2022-08-05T11:06:31.166Z,27.48
2022-08-05T11:09:51.583Z,26.69
2022-08-05T11:13:06.831Z,26.95
2022-08-05T11:16:33.786Z,27.34
2022-08-05T11:20:17.309Z,27.49
2022-08-05T11:24:04.679Z,27.18
2022-08-05T11:27:29.240Z,26.65
2022-08-05T11:30:58.324Z,26.89
2022-08-05T11:34:02.476Z,25.96
2022-08-05T11:37:55.156Z,25.92
2022-08-05T11:41:00.791Z,25.39
2022-08-05T11:44:12.774Z,26.57
2022-08-05T11:47:48.611Z,27.17
2022-08-05T11:50:59.984Z,27.03
2022-08-05T11:54:01.868Z,27.04
2022-08-05T11:57:07.557Z,26.56
2022-08-05T12:00:27.650Z,26.42
2022-08-05T12:03:31.931Z,26.14
2022-08-05T12:06:35.654Z,24.77
2022-08-05T12:09:53.138Z,26.20
2022-08-05T12:13:03.034Z,26.19
2022-08-05T12:16:15.518Z,26.49
2022-08-05T12:20:17.189Z,25.53
2022-08-05T12:22:39.838Z,24.94
2022-08-05T12:25:50.601Z,25.26
2022-08-05T12:28:52.587Z,26.74
2022-08-05T12:31:57.065Z,25.62
2022-08-05T12:34:58.767Z,25.56
2022-08-05T12:38:07.168Z,25.75
2022-08-05T12:41:14.176Z,26.30
2022-08-05T12:44:28.432Z,26.53
2022-08-05T12:47:35.580Z,27.54
2022-08-05T12:50:37.078Z,30.21
2022-08-05T12:53:47.442Z,27.96
2022-08-05T12:56:59.719Z,28.16
2022-08-05T13:01:58.424Z,27.78
2022-08-05T13:03:24.327Z,28.67
2022-08-05T13:06:33.890Z,28.48
2022-08-05T13:09:35.374Z,28.33
2022-08-05T13:12:42.505Z,28.95
2022-08-05T13:15:54.434Z,29.02
2022-08-05T13:18:58.475Z,29.03
2022-08-05T13:22:00.524Z,28.08
2022-08-05T13:25:19.456Z,29.48
2022-08-05T13:28:23.428Z,30.97
2022-08-05T13:32:02.786Z,31.44
2022-08-05T13:34:47.844Z,30.99
2022-08-05T13:37:55.493Z,30.86
2022-08-05T13:40:57.506Z,31.45
2022-08-05T13:43:59.251Z,32.50
2022-08-05T13:47:05.186Z,32.44
2022-08-05T13:50:16.237Z,32.91
2022-08-05T13:53:18.372Z,32.47
2022-08-05T13:56:20.269Z,32.63
2022-08-05T13:59:27.345Z,33.24
2022-08-05T14:02:32.067Z,32.77
2022-08-05T14:06:04.635Z,32.61
2022-08-05T14:08:56.135Z,35.63
2022-08-05T14:12:17.215Z,36.29
2022-08-05T14:16:08.520Z,36.20
2022-08-05T14:18:41.529Z,37.28
2022-08-05T14:22:09.278Z,36.98
2022-08-05T14:25:06.130Z,37.98
2022-08-05T14:28:26.175Z,37.10
2022-08-05T14:31:54.584Z,37.51
2022-08-05T14:34:50.101Z,37.29
2022-08-05T14:37:55.414Z,38.26
2022-08-05T14:40:57.251Z,39.51
2022-08-05T14:44:09.443Z,40.19
2022-08-05T14:47:11.654Z,39.11
2022-08-05T14:50:18.224Z,38.54
2022-08-05T14:53:20.719Z,38.34
2022-08-05T14:56:23.399Z,38.24
2022-08-05T14:59:29.497Z,39.54
2022-08-05T15:02:36.811Z,37.67
2022-08-05T15:06:07.341Z,37.11
2022-08-05T15:09:03.825Z,38.18
2022-08-05T15:12:06.078Z,38.24
2022-08-05T15:15:15.399Z,37.02
2022-08-05T15:18:17.447Z,39.36
2022-08-05T15:21:21.163Z,39.68
2022-08-05T15:24:22.725Z,39.00
2022-08-05T15:27:25.431Z,38.62
2022-08-05T15:30:28.622Z,38.19
2022-08-05T15:34:18.892Z,37.89
2022-08-05T15:36:51.685Z,38.34
2022-08-05T15:41:03.538Z,37.89
2022-08-05T15:43:20.081Z,39.03
2022-08-05T15:46:24.388Z,39.19
2022-08-05T15:49:48.048Z,39.37
2022-08-05T15:52:53.912Z,37.97
2022-08-05T15:56:03.377Z,37.67
2022-08-05T15:59:05.907Z,38.52
2022-08-05T16:02:09.444Z,37.31
2022-08-05T16:05:16.041Z,37.72
2022-08-05T16:08:17.413Z,38.50
2022-08-05T16:11:39.904Z,39.14
2022-08-05T16:14:43.636Z,39.69
2022-08-05T16:17:46.767Z,39.72
2022-08-05T16:21:01.209Z,38.79
2022-08-05T16:24:06.341Z,39.43
2022-08-05T16:27:15.884Z,39.32
2022-08-05T16:30:25.468Z,38.82
2022-08-05T16:33:32.016Z,39.00
2022-08-05T16:36:43.689Z,39.01
2022-08-05T16:40:06.476Z,38.49
2022-08-05T16:43:07.055Z,39.51
2022-08-05T16:46:23.407Z,39.07
2022-08-05T16:49:26.497Z,39.20
2022-08-05T16:52:33.661Z,39.06
2022-08-05T16:55:46.874Z,38.76
2022-08-05T16:58:48.899Z,39.26
2022-08-05T17:01:56.171Z,39.01
2022-08-05T17:04:58.035Z,38.10
2022-08-05T17:07:59.906Z,38.40
2022-08-05T17:11:01.996Z,38.49
2022-08-05T17:14:06.335Z,38.67
2022-08-05T17:17:14.472Z,38.61
2022-08-05T17:20:17.005Z,38.25
2022-08-05T17:24:03.581Z,37.94
2022-08-05T17:26:40.959Z,37.78
2022-08-05T17:29:42.728Z,37.88
2022-08-05T17:32:44.616Z,37.78
2022-08-05T17:36:07.769Z,37.99
2022-08-05T17:39:24.176Z,37.30
2022-08-05T17:42:32.328Z,38.08
2022-08-05T17:45:38.781Z,38.29
2022-08-05T17:48:40.409Z,38.46
2022-08-05T17:51:46.570Z,38.40
2022-08-05T17:54:52.005Z,38.40
2022-08-05T17:57:54.264Z,38.03
2022-08-05T18:00:55.789Z,38.11
2022-08-05T18:04:04.038Z,37.96
2022-08-05T18:07:07.120Z,37.57
2022-08-05T18:10:21.010Z,37.28
2022-08-05T18:13:23.134Z,37.51
2022-08-05T18:16:27.371Z,38.21
2022-08-05T18:19:28.948Z,38.06
2022-08-05T18:22:46.154Z,37.98
2022-08-05T18:25:57.450Z,37.32
2022-08-05T18:29:01.046Z,37.67
2022-08-05T18:32:03.023Z,37.74
2022-08-05T18:35:05.103Z,38.22
2022-08-05T18:38:07.675Z,37.90
2022-08-05T18:41:57.397Z,38.62
2022-08-05T18:44:35.151Z,39.68
2022-08-05T18:47:38.023Z,39.49
2022-08-05T18:52:02.906Z,39.64
2022-08-05T18:54:20.042Z,39.82
2022-08-05T18:57:23.891Z,40.59
2022-08-05T19:00:28.884Z,40.17
2022-08-05T19:03:53.453Z,40.06
2022-08-05T19:06:53.657Z,40.57
2022-08-05T19:09:55.965Z,41.00
2022-08-05T19:12:57.745Z,41.03
2022-08-05T19:16:03.588Z,41.24
2022-08-05T19:19:06.822Z,40.65
2022-08-05T19:22:12.417Z,41.37
2022-08-05T19:25:21.587Z,41.26
2022-08-05T19:28:32.824Z,41.17
2022-08-05T19:31:34.579Z,41.06
2022-08-05T19:34:55.160Z,40.41
2022-08-05T19:38:05.902Z,40.28
2022-08-05T19:41:10.095Z,41.16
2022-08-05T19:44:13.163Z,40.37
2022-08-05T19:47:16.365Z,40.42
2022-08-05T19:50:19.930Z,39.90
2022-08-05T19:54:04.726Z,39.40
2022-08-05T19:56:43.158Z,38.28
2022-08-05T20:00:00.448Z,37.83
2022-08-05T20:03:12.908Z,36.86
2022-08-05T20:06:15.980Z,36.48
2022-08-05T20:09:30.372Z,35.93
2022-08-05T20:12:51.823Z,36.30
2022-08-05T20:15:57.541Z,36.46
2022-08-05T20:18:59.312Z,36.90
2022-08-05T20:22:02.851Z,37.65
2022-08-05T20:25:04.569Z,37.22
2022-08-05T20:28:06.815Z,38.30
2022-08-05T20:31:08.739Z,37.61
2022-08-05T20:34:11.552Z,37.79
2022-08-05T20:37:24.056Z,38.34
2022-08-05T20:40:35.806Z,38.33
2022-08-05T20:43:59.736Z,38.74
2022-08-05T20:47:03.591Z,39.27
2022-08-05T20:50:07.516Z,39.01
2022-08-05T20:53:16.336Z,40.84
2022-08-05T20:56:35.434Z,41.62
2022-08-05T21:00:10.471Z,42.02
2022-08-05T21:03:08.017Z,42.07
2022-08-05T21:06:27.523Z,41.13
2022-08-05T21:09:30.709Z,41.74
2022-08-05T21:12:36.133Z,41.80
2022-08-05T21:15:37.644Z,42.35
2022-08-05T21:18:39.110Z,41.99
2022-08-05T21:21:51.046Z,43.36
2022-08-05T21:24:54.363Z,43.37
2022-08-05T21:27:56.439Z,42.58
2022-08-05T21:30:58.803Z,42.87
2022-08-05T21:34:00.273Z,43.15
2022-08-05T21:37:04.742Z,44.08
2022-08-05T21:40:07.085Z,43.89
2022-08-05T21:43:24.115Z,44.01
2022-08-05T21:46:26.706Z,44.06
2022-08-05T21:49:58.604Z,43.57
2022-08-05T21:52:51.777Z,44.21
2022-08-05T21:56:06.398Z,44.16
2022-08-05T21:59:24.014Z,43.57
2022-08-05T22:02:27.050Z,44.07
2022-08-05T22:05:28.693Z,44.17
2022-08-05T22:08:52.209Z,43.63
2022-08-05T22:11:54.661Z,43.13
2022-08-05T22:14:58.513Z,43.02
2022-08-05T22:18:01.604Z,43.94
2022-08-05T22:21:18.646Z,43.51
2022-08-05T22:24:52.061Z,43.74
2022-08-05T22:28:08.177Z,43.46
2022-08-05T22:31:14.515Z,43.69
2022-08-05T22:34:28.402Z,43.26
2022-08-05T22:37:58.036Z,43.90
2022-08-05T22:40:54.944Z,43.44
2022-08-05T22:43:59.169Z,42.62
2022-08-05T22:47:00.764Z,42.00
2022-08-05T22:50:19.663Z,41.92
2022-08-05T22:53:23.190Z,42.78
2022-08-05T22:56:30.609Z,42.30
2022-08-05T22:59:45.332Z,42.29
2022-08-05T23:02:53.184Z,42.46
2022-08-05T23:05:55.761Z,41.75
2022-08-05T23:08:57.203Z,42.08
2022-08-05T23:12:20.227Z,41.40
2022-08-05T23:15:29.475Z,41.70
2022-08-05T23:18:36.616Z,41.54
2022-08-05T23:21:43.069Z,41.37
2022-08-05T23:24:51.057Z,41.22
2022-08-05T23:27:58.036Z,41.30
2022-08-05T23:31:16.354Z,41.39
2022-08-05T23:34:24.728Z,41.00
2022-08-05T23:37:26.720Z,41.21
2022-08-05T23:40:36.009Z,41.10
2022-08-05T23:44:04.491Z,40.50
2022-08-05T23:47:02.656Z,40.80
2022-08-05T23:50:17.032Z,40.10
2022-08-05T23:53:22.258Z,40.12
2022-08-05T23:56:27.391Z,40.61
